Time;durP1;ratioP1;P1;durP2;ratioP2;P2;SDS_P1;SDS_P2;PMS_P1;PMS_P2;Temp;Humidity;BMP_temperature;BMP_pressure;BME280_temperature;BME280_humidity;BME280_pressure;Samples;Min_cycle;Max_cycle;Signal;HPM_P1;HPM_P2
2023/01/18 00:02:03;;;;;;;5.00;3.78;;;;;;;1.88;100.00;97613.97;5075144;28;20295;-76
2023/01/18 00:04:33;;;;;;;5.88;3.75;;;;;;;1.82;100.00;97614.31;5077428;28;20246;-76
2023/01/18 00:07:00;;;;;;;10.82;5.10;;;;;;;1.84;100.00;97615.09;5077303;28;20198;-76
2023/01/18 00:09:29;;;;;;;9.32;4.85;;;;;;;1.87;100.00;97607.78;5086410;28;20206;-76
2023/01/18 00:11:55;;;;;;;7.85;4.50;;;;;;;1.85;100.00;97612.34;5079464;28;20313;-76
2023/01/18 00:14:22;;;;;;;6.38;3.97;;;;;;;1.92;100.00;97609.34;5076321;28;20220;-77
2023/01/18 00:16:48;;;;;;;6.60;4.85;;;;;;;1.94;100.00;97610.13;5078325;28;20551;-76
2023/01/18 00:19:16;;;;;;;5.25;3.92;;;;;;;1.92;100.00;97604.88;5075686;28;20271;-76
2023/01/18 00:21:43;;;;;;;7.15;4.05;;;;;;;1.88;100.00;97606.03;5077992;28;20203;-75
2023/01/18 00:24:13;;;;;;;6.35;4.30;;;;;;;1.80;100.00;97602.91;5075752;28;20316;-77
2023/01/18 00:26:41;;;;;;;5.25;4.28;;;;;;;1.81;100.00;97602.84;5055356;28;20242;-76
2023/01/18 00:29:09;;;;;;;6.07;3.83;;;;;;;1.87;100.00;97602.50;5057374;28;20226;-77
2023/01/18 00:31:36;;;;;;;5.50;3.88;;;;;;;1.84;100.00;97597.34;5077717;28;20226;-77
2023/01/18 00:34:03;;;;;;;6.50;3.60;;;;;;;1.77;100.00;97606.59;5077271;28;20313;-77
2023/01/18 00:36:32;;;;;;;5.78;4.35;;;;;;;1.76;100.00;97598.72;5093988;28;20235;-76
2023/01/18 00:38:59;;;;;;;6.40;3.70;;;;;;;1.75;100.00;97602.31;5087817;28;20230;-77
2023/01/18 00:41:26;;;;;;;5.50;3.92;;;;;;;1.73;100.00;97605.03;5087858;28;20230;-77
2023/01/18 00:43:52;;;;;;;4.40;3.60;;;;;;;1.73;100.00;97610.34;5080889;28;20394;-76
2023/01/18 00:46:21;;;;;;;5.38;4.00;;;;;;;1.66;100.00;97598.38;5078501;28;20239;-76
2023/01/18 00:48:48;;;;;;;7.55;3.83;;;;;;;1.68;100.00;97599.13;5056885;28;20204;-76
2023/01/18 00:51:17;;;;;;;8.23;4.57;;;;;;;1.66;100.00;97606.31;5064593;28;20210;-77
2023/01/18 00:53:45;;;;;;;5.72;4.10;;;;;;;1.64;100.00;97601.09;5076532;28;20225;-77
2023/01/18 00:56:14;;;;;;;5.75;4.20;;;;;;;1.64;100.00;97608.19;5077706;28;20539;-75
2023/01/18 00:58:40;;;;;;;5.45;4.13;;;;;;;1.66;100.00;97601.00;5077921;28;20211;-77
2023/01/18 01:01:08;;;;;;;5.57;4.95;;;;;;;1.65;100.00;97607.25;5078020;28;20292;-77
2023/01/18 01:09:01;;;;;;;9.45;4.00;;;;;;;1.56;100.00;97607.75;5077360;28;20209;-77
2023/01/18 01:11:28;;;;;;;5.20;4.28;;;;;;;1.55;100.00;97601.59;5077988;28;20283;-75
2023/01/18 01:27:36;;;;;;;7.07;4.32;;;;;;;1.63;100.00;97627.72;5091104;28;20211;-75
2023/01/18 01:30:02;;;;;;;4.93;3.85;;;;;;;1.70;100.00;97630.88;5087742;28;20218;-77
2023/01/18 01:32:29;;;;;;;4.95;3.67;;;;;;;1.66;100.00;97627.53;5083004;28;20693;-76
2023/01/18 01:34:56;;;;;;;5.05;3.83;;;;;;;1.60;100.00;97627.88;5064204;28;20232;-78
2023/01/18 01:37:22;;;;;;;6.22;3.90;;;;;;;1.60;100.00;97634.00;5058787;28;20290;-75
2023/01/18 01:39:49;;;;;;;6.70;4.13;;;;;;;1.61;100.00;97634.91;5058651;28;20297;-77
2023/01/18 01:42:17;;;;;;;4.82;4.28;;;;;;;1.57;100.00;97630.69;5061157;28;20195;-77
2023/01/18 01:44:50;;;;;;;4.72;3.60;;;;;;;1.60;100.00;97635.81;5070622;28;20281;-77
2023/01/18 01:47:37;;;;;;;5.63;4.40;;;;;;;1.66;100.00;97646.13;5057342;28;20199;-78
2023/01/18 01:50:11;;;;;;;6.60;4.40;;;;;;;1.64;100.00;97646.19;5057519;28;20270;-77
2023/01/18 01:52:41;;;;;;;7.63;4.40;;;;;;;1.67;100.00;97642.50;5056730;28;20221;-76
2023/01/18 01:55:14;;;;;;;5.43;3.60;;;;;;;1.64;100.00;97651.50;5072593;28;20194;-76
2023/01/18 01:57:46;;;;;;;5.75;4.03;;;;;;;1.70;100.00;97641.47;5078943;28;20194;-77
2023/01/18 02:00:17;;;;;;;5.95;3.67;;;;;;;1.67;100.00;97648.69;5078812;28;20188;-76
2023/01/18 02:02:48;;;;;;;5.53;3.80;;;;;;;1.70;100.00;97657.41;5076310;28;20190;-76
2023/01/18 02:05:17;;;;;;;4.93;4.00;;;;;;;1.69;100.00;97656.56;5076704;28;20183;-77
2023/01/18 02:07:44;;;;;;;5.32;3.75;;;;;;;1.67;100.00;97658.44;5076692;28;20196;-77
2023/01/18 02:10:11;;;;;;;5.05;3.90;;;;;;;1.68;100.00;97665.47;5077038;28;20298;-76
2023/01/18 02:12:41;;;;;;;5.45;4.32;;;;;;;1.71;100.00;97664.44;5076609;28;20228;-76
2023/01/18 02:15:10;;;;;;;8.85;3.78;;;;;;;1.74;100.00;97664.25;5075785;28;20640;-76
2023/01/18 02:17:49;;;;;;;9.27;4.43;;;;;;;1.79;100.00;97668.41;5070606;28;20667;-75
2023/01/18 02:20:44;;;;;;;5.22;3.58;;;;;;;1.73;100.00;97682.00;5055868;28;20183;-77
2023/01/18 02:23:34;;;;;;;7.57;4.88;;;;;;;1.72;100.00;97680.28;5055963;28;20314;-75
2023/01/18 02:26:36;;;;;;;7.97;3.80;;;;;;;1.77;100.00;97688.84;5055176;28;20673;-76
2023/01/18 02:29:13;;;;;;;6.45;4.20;;;;;;;1.76;100.00;97689.78;4989719;28;20208;-76
2023/01/18 02:31:50;;;;;;;6.20;4.13;;;;;;;1.75;100.00;97698.69;5011767;28;20250;-76
2023/01/18 02:34:27;;;;;;;6.15;4.05;;;;;;;1.76;100.00;97695.06;4994587;28;20226;-76
2023/01/18 02:37:02;;;;;;;5.53;3.97;;;;;;;1.82;100.00;97697.41;4994213;28;20595;-77
2023/01/18 02:39:38;;;;;;;6.20;4.28;;;;;;;1.84;100.00;97700.84;4993821;28;20201;-76
2023/01/18 02:47:49;;;;;;;9.82;4.53;;;;;;;1.79;100.00;97707.34;4987546;28;20222;-76
2023/01/18 02:50:23;;;;;;;6.60;4.47;;;;;;;1.77;100.00;97702.13;4993595;28;20197;-76
2023/01/18 02:52:51;;;;;;;7.53;4.35;;;;;;;1.77;100.00;97702.13;4993582;28;20225;-77
2023/01/18 02:55:31;;;;;;;8.68;4.30;;;;;;;1.74;100.00;97712.91;4994989;28;20197;-75
2023/01/18 02:58:03;;;;;;;5.35;3.83;;;;;;;1.79;100.00;97716.16;4981628;28;20194;-76
2023/01/18 03:00:34;;;;;;;5.75;4.57;;;;;;;1.77;100.00;97720.69;4999145;28;20216;-77
2023/01/18 03:03:01;;;;;;;7.93;5.20;;;;;;;1.75;100.00;97716.41;5005853;28;20222;-78
2023/01/18 03:05:30;;;;;;;5.50;4.07;;;;;;;1.78;100.00;97721.53;5033125;28;20303;-75
2023/01/18 03:08:05;;;;;;;7.18;4.65;;;;;;;1.80;100.00;97720.53;5081129;28;20209;-75
2023/01/18 03:10:35;;;;;;;8.20;4.82;;;;;;;1.79;100.00;97726.78;5083114;28;20281;-76
2023/01/18 03:13:08;;;;;;;5.13;3.85;;;;;;;1.78;100.00;97725.03;5084403;28;20228;-74
2023/01/18 03:15:44;;;;;;;5.88;3.60;;;;;;;1.78;100.00;97727.69;5084039;28;20227;-76
2023/01/18 03:18:16;;;;;;;10.23;4.40;;;;;;;1.83;100.00;97723.03;5088641;28;20200;-76
2023/01/18 03:20:51;;;;;;;6.30;4.07;;;;;;;1.77;100.00;97728.66;5094138;28;20198;-77
2023/01/18 03:23:38;;;;;;;6.80;4.35;;;;;;;1.76;100.00;97732.22;5090488;28;20226;-76
2023/01/18 03:26:06;;;;;;;7.88;4.40;;;;;;;1.79;100.00;97733.88;5084055;28;20185;-77
2023/01/18 03:34:19;;;;;;;7.85;4.28;;;;;;;1.75;100.00;97742.94;5054628;28;20249;-76
2023/01/18 03:36:51;;;;;;;7.00;4.40;;;;;;;1.80;100.00;97747.06;5063269;28;20205;-77
2023/01/18 03:39:23;;;;;;;6.38;4.78;;;;;;;1.79;100.00;97749.81;5073622;28;20180;-76
2023/01/18 03:41:54;;;;;;;7.47;4.15;;;;;;;1.80;100.00;97755.00;5074222;28;20577;-77
2023/01/18 03:44:26;;;;;;;7.93;3.85;;;;;;;1.83;100.00;97754.88;5054417;28;20783;-76
2023/01/18 03:46:56;;;;;;;6.75;3.67;;;;;;;1.86;100.00;97759.16;5055356;28;20668;-75
2023/01/18 03:49:23;;;;;;;7.72;4.25;;;;;;;1.79;100.00;97763.94;5054415;28;20257;-77
2023/01/18 03:52:07;;;;;;;11.13;4.53;;;;;;;1.84;100.00;97774.31;5054906;28;20291;-76
2023/01/18 03:54:38;;;;;;;6.05;4.15;;;;;;;1.92;100.00;97771.25;5069134;28;20276;-76
2023/01/18 03:57:11;;;;;;;4.30;3.88;;;;;;;1.93;100.00;97775.63;5075445;28;20525;-75
2023/01/18 03:59:39;;;;;;;7.22;4.55;;;;;;;1.86;100.00;97773.28;5074532;28;20277;-77
2023/01/18 04:02:08;;;;;;;4.70;3.58;;;;;;;1.93;100.00;97780.94;5076282;28;20202;-75
2023/01/18 04:04:35;;;;;;;5.47;3.95;;;;;;;1.91;100.00;97777.50;5078941;28;20222;-78
2023/01/18 04:07:01;;;;;;;8.13;3.83;;;;;;;1.95;100.00;97789.69;5077660;28;20567;-76
2023/01/18 04:09:28;;;;;;;10.00;4.10;;;;;;;1.93;100.00;97786.25;5078050;28;20207;-76
2023/01/18 04:11:54;;;;;;;5.80;4.32;;;;;;;1.87;100.00;97790.06;5078335;28;20293;-75
2023/01/18 04:14:21;;;;;;;8.10;3.90;;;;;;;1.91;100.00;97788.13;5078470;28;20238;-76
2023/01/18 04:16:47;;;;;;;5.35;3.85;;;;;;;1.94;100.00;97788.78;5077863;28;20202;-76
2023/01/18 04:19:16;;;;;;;6.57;3.45;;;;;;;2.04;100.00;97790.03;5077694;28;20687;-77
2023/01/18 04:21:42;;;;;;;4.72;3.72;;;;;;;1.98;100.00;97794.81;5078169;28;20202;-76
2023/01/18 04:24:10;;;;;;;6.93;4.30;;;;;;;1.99;100.00;97796.50;5062947;28;20213;-76
2023/01/18 04:26:36;;;;;;;7.85;4.35;;;;;;;1.98;100.00;97800.13;5058328;28;20274;-76
2023/01/18 04:29:05;;;;;;;7.38;4.22;;;;;;;1.97;100.00;97807.22;5057014;28;20211;-78
2023/01/18 04:31:32;;;;;;;5.00;3.67;;;;;;;1.94;100.00;97810.03;5058622;28;20210;-77
2023/01/18 04:33:59;;;;;;;6.97;4.25;;;;;;;1.96;100.00;97816.13;5070965;28;20226;-77
2023/01/18 04:36:28;;;;;;;6.13;4.00;;;;;;;1.94;100.00;97823.28;5078463;28;20203;-76
2023/01/18 04:38:56;;;;;;;5.45;3.65;;;;;;;1.97;100.00;97814.34;5094441;28;20207;-75
2023/01/18 04:41:23;;;;;;;8.38;3.65;;;;;;;2.04;100.00;97816.59;5087034;28;20295;-77
2023/01/18 04:43:50;;;;;;;6.82;4.07;;;;;;;2.01;100.00;97822.06;5083157;28;20214;-76
2023/01/18 04:46:17;;;;;;;8.63;4.53;;;;;;;1.97;100.00;97827.63;5078164;28;20584;-76
2023/01/18 04:48:43;;;;;;;9.30;4.20;;;;;;;2.01;100.00;97814.09;5081231;28;20202;-77
2023/01/18 04:51:13;;;;;;;6.22;3.90;;;;;;;2.03;100.00;97824.63;5089674;28;20270;-76
2023/01/18 04:53:42;;;;;;;4.50;3.60;;;;;;;1.98;100.00;97826.66;5082207;28;20222;-76
2023/01/18 04:56:09;;;;;;;6.05;3.90;;;;;;;1.99;100.00;97829.25;5079166;28;20295;-76
2023/01/18 04:58:36;;;;;;;6.68;3.90;;;;;;;1.90;100.00;97837.69;5077818;28;20200;-75
2023/01/18 05:01:04;;;;;;;6.95;3.25;;;;;;;1.85;100.00;97839.69;5076938;28;20358;-78
2023/01/18 05:03:36;;;;;;;5.85;3.90;;;;;;;1.84;100.00;97841.50;5057290;28;20596;-77
2023/01/18 05:06:04;;;;;;;4.53;3.22;;;;;;;1.87;100.00;97843.97;5063009;28;20200;-77
2023/01/18 05:08:31;;;;;;;5.95;3.33;;;;;;;1.85;100.00;97852.97;5061899;28;20275;-75
2023/01/18 05:11:02;;;;;;;9.10;4.43;;;;;;;1.91;100.00;97859.78;5060108;28;20200;-76
2023/01/18 05:13:29;;;;;;;4.78;3.55;;;;;;;1.87;100.00;97859.06;5072418;28;20220;-76
2023/01/18 05:15:56;;;;;;;6.70;3.83;;;;;;;1.92;100.00;97861.47;5078132;28;20206;-76
2023/01/18 05:18:22;;;;;;;4.45;3.65;;;;;;;1.93;100.00;97872.03;5077052;28;20199;-76
2023/01/18 05:20:49;;;;;;;7.40;3.45;;;;;;;1.90;100.00;97863.34;5078214;28;20206;-76
2023/01/18 05:23:16;;;;;;;5.75;3.08;;;;;;;1.88;100.00;97874.06;5076429;28;20228;-75
2023/01/18 05:25:42;;;;;;;5.47;3.47;;;;;;;1.83;100.00;97884.03;5077629;28;20702;-74
2023/01/18 05:28:10;;;;;;;5.18;3.40;;;;;;;1.88;100.00;97895.28;5077095;28;20286;-75
2023/01/18 05:30:41;;;;;;;8.65;5.10;;;;;;;1.86;100.00;97895.34;5079835;28;20209;-74
2023/01/18 05:33:09;;;;;;;10.77;3.85;;;;;;;1.92;100.00;97896.81;5084703;28;20228;-74
2023/01/18 05:35:35;;;;;;;3.95;2.95;;;;;;;1.96;100.00;97902.84;5082371;28;20196;-73
2023/01/18 05:38:02;;;;;;;8.27;2.80;;;;;;;2.00;100.00;97907.94;5080819;28;20235;-75
2023/01/18 05:40:29;;;;;;;4.70;3.45;;;;;;;1.99;100.00;97906.22;5078058;28;20202;-75
2023/01/18 05:42:55;;;;;;;7.57;3.13;;;;;;;1.96;100.00;97913.47;5078741;28;20596;-74
2023/01/18 05:45:23;;;;;;;16.90;6.35;;;;;;;1.98;100.00;97911.59;5076849;28;20203;-74
2023/01/18 05:47:50;;;;;;;8.50;4.90;;;;;;;2.02;100.00;97906.06;5084807;28;20187;-73
2023/01/18 05:50:16;;;;;;;5.38;3.10;;;;;;;2.02;100.00;97913.19;5098280;28;20255;-75
2023/01/18 05:52:43;;;;;;;6.43;2.83;;;;;;;2.01;100.00;97911.44;5098157;28;20187;-71
2023/01/18 05:55:10;;;;;;;5.50;3.30;;;;;;;2.03;100.00;97920.19;5098627;28;20182;-72
2023/01/18 05:57:36;;;;;;;5.28;2.80;;;;;;;2.01;100.00;97922.94;5098161;28;20199;-71
2023/01/18 06:00:04;;;;;;;4.97;2.80;;;;;;;2.12;100.00;97918.88;5098476;28;20214;-72
2023/01/18 06:02:32;;;;;;;6.65;2.95;;;;;;;2.10;100.00;97932.22;5098395;28;20185;-72
2023/01/18 06:04:58;;;;;;;5.65;4.13;;;;;;;2.03;100.00;97931.66;5092205;28;20211;-74
2023/01/18 06:07:25;;;;;;;7.05;2.92;;;;;;;2.02;100.00;97942.38;5080221;28;20297;-74
2023/01/18 06:09:51;;;;;;;5.55;2.90;;;;;;;2.06;100.00;97946.59;5079139;28;20337;-74
2023/01/18 06:12:18;;;;;;;5.05;3.03;;;;;;;2.08;100.00;97950.91;5076190;28;20217;-76
2023/01/18 06:14:44;;;;;;;2.72;2.25;;;;;;;2.05;100.00;97960.78;5079047;28;20236;-76
2023/01/18 06:17:11;;;;;;;4.65;2.88;;;;;;;2.06;100.00;97957.22;5079436;28;20221;-76
2023/01/18 06:19:39;;;;;;;4.80;2.75;;;;;;;2.07;100.00;97964.22;5078141;28;20205;-75
2023/01/18 06:22:05;;;;;;;12.13;6.20;;;;;;;2.05;100.00;97960.78;5079114;28;20204;-75
2023/01/18 06:24:32;;;;;;;5.13;3.30;;;;;;;2.01;100.00;97961.88;5078829;28;20226;-75
2023/01/18 06:26:59;;;;;;;5.40;2.60;;;;;;;2.00;100.00;97968.13;5080218;28;20207;-74
2023/01/18 06:29:25;;;;;;;4.43;2.70;;;;;;;1.90;100.00;97967.75;5081013;28;20213;-74
2023/01/18 06:31:52;;;;;;;8.00;5.32;;;;;;;1.87;100.00;97965.22;5081537;28;20189;-76
2023/01/18 06:34:19;;;;;;;4.60;2.88;;;;;;;1.92;100.00;97971.16;5080220;28;20655;-76
2023/01/18 06:36:46;;;;;;;10.13;3.05;;;;;;;1.90;100.00;97983.66;5080705;28;20619;-74
2023/01/18 06:39:13;;;;;;;3.97;2.83;;;;;;;1.83;100.00;97980.44;5078130;28;20584;-74
2023/01/18 06:41:40;;;;;;;5.90;4.10;;;;;;;1.75;100.00;97984.41;5080154;28;20285;-75
2023/01/18 06:44:06;;;;;;;3.65;2.95;;;;;;;1.78;100.00;97992.19;5080705;28;20242;-76
2023/01/18 06:46:33;;;;;;;6.78;3.10;;;;;;;1.73;100.00;97987.13;5078801;28;20202;-76
2023/01/18 06:48:59;;;;;;;6.78;2.35;;;;;;;1.72;100.00;97987.19;5088134;28;20202;-73
2023/01/18 06:51:26;;;;;;;6.93;2.75;;;;;;;1.64;100.00;97998.16;5083445;28;20201;-75
2023/01/18 06:53:54;;;;;;;3.50;2.55;;;;;;;1.61;100.00;98004.50;5078903;28;20317;-74
2023/01/18 06:56:21;;;;;;;5.93;3.63;;;;;;;1.70;100.00;98007.63;5078099;28;20253;-75
2023/01/18 06:58:47;;;;;;;6.10;2.75;;;;;;;1.64;100.00;98019.41;5081912;28;20267;-75
2023/01/18 07:01:14;;;;;;;5.47;2.47;;;;;;;1.64;100.00;98019.41;5087150;28;20207;-75
2023/01/18 07:03:40;;;;;;;5.35;2.92;;;;;;;1.55;100.00;98026.00;5087200;28;20225;-73
2023/01/18 07:06:07;;;;;;;4.57;2.35;;;;;;;1.48;100.00;98027.22;5088159;28;20210;-74
2023/01/18 07:08:34;;;;;;;4.90;3.15;;;;;;;1.54;100.00;98039.31;5085007;28;20271;-75
2023/01/18 07:11:06;;;;;;;6.50;2.95;;;;;;;1.53;100.00;98038.47;5081764;28;20246;-73
2023/01/18 07:13:32;;;;;;;6.82;2.95;;;;;;;1.43;100.00;98051.28;5078120;28;20230;-76
2023/01/18 07:16:00;;;;;;;6.10;3.10;;;;;;;1.41;100.00;98053.16;5078859;28;20202;-74
2023/01/18 07:18:29;;;;;;;6.43;2.92;;;;;;;1.50;100.00;98051.88;5076699;28;20259;-73
2023/01/18 07:20:57;;;;;;;7.38;3.35;;;;;;;1.45;100.00;98068.00;5075167;28;20257;-74
2023/01/18 07:23:23;;;;;;;4.80;2.63;;;;;;;1.47;100.00;98075.91;5075123;28;20228;-74
2023/01/18 07:25:58;;;;;;;4.40;3.03;;;;;;;1.44;100.00;98071.56;5075941;28;20198;-75
2023/01/18 07:28:26;;;;;;;6.95;2.83;;;;;;;1.43;100.00;98083.13;5078326;28;20702;-75
2023/01/18 07:30:52;;;;;;;5.28;2.80;;;;;;;1.46;100.00;98088.28;5079175;28;20586;-73
2023/01/18 07:33:19;;;;;;;9.07;3.00;;;;;;;1.51;100.00;98087.22;5078834;28;20588;-75
2023/01/18 07:35:46;;;;;;;5.57;3.90;;;;;;;1.39;100.00;98104.53;5085671;28;20207;-75
2023/01/18 07:38:13;;;;;;;3.85;2.85;;;;;;;1.46;100.00;98095.38;5084247;28;20247;-75
2023/01/18 07:40:39;;;;;;;5.15;2.50;;;;;;;1.40;100.00;98104.50;5084189;28;20211;-74
2023/01/18 07:43:06;;;;;;;8.65;3.38;;;;;;;1.45;100.00;98098.97;5086105;28;20289;-74
2023/01/18 07:45:35;;;;;;;6.60;3.65;;;;;;;1.48;100.00;98109.44;5085524;28;20726;-74
2023/01/18 07:48:01;;;;;;;6.05;3.40;;;;;;;1.48;100.00;98113.88;5085822;28;20229;-74
2023/01/18 07:50:28;;;;;;;9.57;3.95;;;;;;;1.53;100.00;98120.69;5083089;28;20409;-74
2023/01/18 07:52:55;;;;;;;4.55;2.72;;;;;;;1.54;100.00;98121.53;5080017;28;20229;-75
2023/01/18 07:55:21;;;;;;;4.57;3.20;;;;;;;1.56;100.00;98127.66;5080052;28;20228;-75
2023/01/18 07:57:48;;;;;;;4.38;3.47;;;;;;;1.52;100.00;98132.25;5078179;28;20201;-74
2023/01/18 08:00:16;;;;;;;6.05;3.28;;;;;;;1.56;100.00;98133.84;5079852;28;20682;-74
2023/01/18 08:02:44;;;;;;;5.22;3.33;;;;;;;1.66;100.00;98139.56;5085174;28;20216;-73
2023/01/18 08:05:10;;;;;;;6.97;3.95;;;;;;;1.69;100.00;98144.72;5088152;28;20199;-75
2023/01/18 08:07:37;;;;;;;5.45;3.95;;;;;;;1.77;100.00;98141.75;5071929;28;20255;-74
2023/01/18 08:10:03;;;;;;;7.72;4.07;;;;;;;1.83;100.00;98150.28;5090067;28;20198;-74
2023/01/18 08:12:30;;;;;;;7.25;3.78;;;;;;;1.86;100.00;98159.91;5088043;28;20206;-74
2023/01/18 08:14:56;;;;;;;5.60;3.58;;;;;;;1.82;100.00;98163.63;5084288;28;20574;-74
2023/01/18 08:17:23;;;;;;;6.65;3.50;;;;;;;1.86;100.00;98155.44;5085805;28;20198;-73
2023/01/18 08:19:51;;;;;;;4.82;3.45;;;;;;;2.01;100.00;98168.94;5083329;28;20234;-75
2023/01/18 08:22:17;;;;;;;6.03;4.57;;;;;;;2.06;100.00;98181.09;5090657;28;20198;-73
2023/01/18 08:24:44;;;;;;;7.57;4.13;;;;;;;2.07;100.00;98171.31;5095505;28;20305;-73
2023/01/18 08:27:11;;;;;;;6.40;3.45;;;;;;;2.16;100.00;98180.66;5095421;28;20202;-74
2023/01/18 08:29:37;;;;;;;4.78;3.40;;;;;;;2.22;100.00;98173.25;5095538;28;20212;-74
2023/01/18 08:32:04;;;;;;;8.07;4.07;;;;;;;2.25;100.00;98175.75;5096857;28;20239;-74
2023/01/18 08:34:30;;;;;;;5.50;4.25;;;;;;;2.22;100.00;98175.06;5095708;28;20232;-73
2023/01/18 08:36:59;;;;;;;11.20;4.78;;;;;;;2.35;100.00;98177.97;5092696;28;20207;-73
2023/01/18 08:39:25;;;;;;;7.85;4.15;;;;;;;2.39;100.00;98183.06;5085747;28;20597;-75
2023/01/18 08:41:52;;;;;;;7.20;3.85;;;;;;;2.44;100.00;98191.72;5084683;28;20199;-74
2023/01/18 08:44:18;;;;;;;7.40;4.38;;;;;;;2.56;100.00;98203.53;5085037;28;20218;-76
2023/01/18 08:46:45;;;;;;;8.80;4.72;;;;;;;2.70;100.00;98206.38;5083395;28;20206;-76
2023/01/18 08:49:12;;;;;;;8.93;4.55;;;;;;;2.69;100.00;98204.69;5084822;28;20271;-73
2023/01/18 08:51:39;;;;;;;9.63;5.00;;;;;;;2.82;100.00;98217.34;5084757;28;20233;-75
2023/01/18 08:54:07;;;;;;;6.78;4.43;;;;;;;2.88;100.00;98212.59;5089043;28;20493;-75
2023/01/18 08:56:34;;;;;;;7.22;4.15;;;;;;;3.00;100.00;98216.44;5090664;28;20293;-74
2023/01/18 08:59:01;;;;;;;7.15;3.88;;;;;;;3.18;100.00;98221.81;5088876;28;20214;-74
2023/01/18 09:01:29;;;;;;;9.40;4.40;;;;;;;3.27;100.00;98229.31;5090048;28;20260;-73
2023/01/18 09:03:57;;;;;;;7.35;4.55;;;;;;;3.28;100.00;98228.41;5092347;28;20220;-73
2023/01/18 09:06:23;;;;;;;5.97;4.57;;;;;;;3.34;100.00;98247.53;5097927;28;20210;-73
2023/01/18 09:08:50;;;;;;;8.20;4.05;;;;;;;3.48;100.00;98241.53;5095648;28;20211;-74
2023/01/18 09:11:18;;;;;;;7.60;5.47;;;;;;;3.49;100.00;98253.91;5090625;28;20202;-74
2023/01/18 09:13:45;;;;;;;6.47;4.50;;;;;;;3.63;100.00;98244.34;5089765;28;20224;-73
2023/01/18 09:16:13;;;;;;;5.88;4.20;;;;;;;3.74;100.00;98256.16;5089673;28;20270;-73
2023/01/18 09:18:39;;;;;;;10.18;6.03;;;;;;;3.79;100.00;98263.06;5089521;28;20198;-74
2023/01/18 09:21:08;;;;;;;7.47;4.30;;;;;;;3.88;100.00;98270.56;5084074;28;20226;-73
2023/01/18 09:23:35;;;;;;;8.93;5.15;;;;;;;3.93;100.00;98269.41;5084769;28;20229;-72
2023/01/18 09:26:04;;;;;;;8.80;4.25;;;;;;;4.09;100.00;98265.91;5087595;28;20202;-74
2023/01/18 09:28:33;;;;;;;9.82;5.28;;;;;;;4.32;100.00;98278.88;5090132;28;20210;-74
2023/01/18 09:31:01;;;;;;;9.55;4.95;;;;;;;4.46;100.00;98286.13;5091452;28;20549;-74
2023/01/18 09:33:28;;;;;;;10.10;4.95;;;;;;;4.53;100.00;98284.00;5092157;28;20249;-74
2023/01/18 09:35:55;;;;;;;7.70;5.03;;;;;;;4.73;100.00;98289.09;5090505;28;20227;-74
2023/01/18 09:38:22;;;;;;;8.55;4.40;;;;;;;4.74;100.00;98292.59;5087038;28;20261;-74
2023/01/18 09:40:51;;;;;;;9.75;4.70;;;;;;;4.98;100.00;98296.56;5090542;28;20192;-75
2023/01/18 09:43:25;;;;;;;9.05;4.22;;;;;;;5.01;100.00;98298.22;5089468;28;20219;-73
2023/01/18 09:45:54;;;;;;;7.65;4.32;;;;;;;4.93;100.00;98305.75;5091030;28;20226;-73
2023/01/18 09:48:28;;;;;;;12.05;4.75;;;;;;;4.72;100.00;98313.16;5090519;28;20206;-74
2023/01/18 09:50:58;;;;;;;10.13;4.30;;;;;;;4.68;100.00;98320.47;5090558;28;20228;-74
2023/01/18 09:53:42;;;;;;;10.63;5.15;;;;;;;4.77;100.00;98327.97;5090474;28;20220;-74
2023/01/18 09:56:15;;;;;;;11.25;4.75;;;;;;;4.87;100.00;98320.31;5090953;28;20245;-74
2023/01/18 09:58:52;;;;;;;7.90;4.10;;;;;;;4.98;100.00;98319.72;5090380;28;20258;-74
2023/01/18 10:01:24;;;;;;;5.38;3.92;;;;;;;5.48;97.08;98320.47;5072630;28;20249;-74
2023/01/18 10:03:54;;;;;;;5.70;4.00;;;;;;;5.76;94.21;98317.03;5087853;28;20215;-75
2023/01/18 10:06:26;;;;;;;8.82;3.80;;;;;;;6.04;84.59;98314.50;5087043;28;20244;-74
2023/01/18 10:08:57;;;;;;;5.70;4.00;;;;;;;6.34;84.02;98323.41;5086759;28;20681;-73
2023/01/18 10:11:30;;;;;;;4.90;3.83;;;;;;;6.74;78.37;98327.16;5088921;28;20210;-73
2023/01/18 10:14:07;;;;;;;7.72;3.80;;;;;;;6.89;72.16;98334.19;5088007;28;20636;-72
2023/01/18 10:16:37;;;;;;;5.72;3.60;;;;;;;7.07;70.20;98334.84;5089457;28;20188;-75
2023/01/18 10:19:12;;;;;;;6.15;3.22;;;;;;;7.04;66.88;98342.22;5089491;28;20210;-74
2023/01/18 10:21:47;;;;;;;5.80;3.00;;;;;;;6.89;66.11;98347.56;5090905;28;20254;-75
2023/01/18 10:24:41;;;;;;;5.50;2.90;;;;;;;7.35;64.86;98351.84;5087904;28;20317;-75
2023/01/18 10:27:37;;;;;;;4.45;3.20;;;;;;;7.58;63.39;98353.00;5089555;28;20198;-73
2023/01/18 10:30:19;;;;;;;3.22;2.92;;;;;;;7.90;60.38;98350.00;5089275;28;20256;-77
2023/01/18 10:32:53;;;;;;;4.93;3.20;;;;;;;8.07;59.01;98354.22;5090951;28;20184;-73
2023/01/18 10:35:27;;;;;;;8.82;3.63;;;;;;;8.11;57.68;98355.72;5089317;28;20248;-74
2023/01/18 10:38:00;;;;;;;3.80;3.40;;;;;;;8.37;55.30;98353.97;5089522;28;20180;-74
2023/01/18 10:40:27;;;;;;;4.25;3.10;;;;;;;8.98;55.25;98357.75;5088481;28;20181;-74
2023/01/18 10:42:58;;;;;;;4.55;3.33;;;;;;;9.32;52.97;98363.38;5089330;28;20212;-76
2023/01/18 10:45:27;;;;;;;10.23;5.75;;;;;;;9.56;52.07;98362.53;5088930;28;20200;-73
2023/01/18 10:47:57;;;;;;;8.80;3.42;;;;;;;9.21;50.19;98374.03;5090533;28;20278;-75
2023/01/18 10:50:34;;;;;;;6.35;3.45;;;;;;;9.46;50.57;98373.09;5092468;28;20228;-74
2023/01/18 10:53:19;;;;;;;4.50;3.03;;;;;;;9.46;50.07;98375.78;5087238;28;20300;-74
2023/01/18 10:55:52;;;;;;;6.22;3.05;;;;;;;9.23;47.35;98376.63;5087314;28;20204;-74
2023/01/18 10:58:26;;;;;;;4.05;2.13;;;;;;;9.70;46.65;98370.47;5090185;28;20177;-74
2023/01/18 11:00:54;;;;;;;2.70;1.77;;;;;;;9.80;46.59;98379.53;5091622;28;20266;-73
2023/01/18 11:03:25;;;;;;;4.68;2.28;;;;;;;10.07;46.11;98372.22;5085794;28;20220;-73
2023/01/18 11:05:52;;;;;;;5.57;2.90;;;;;;;10.00;45.09;98364.59;5087861;28;20188;-72
2023/01/18 11:08:22;;;;;;;5.47;2.80;;;;;;;9.88;44.25;98372.72;5088384;28;20196;-73
2023/01/18 11:10:59;;;;;;;3.03;2.42;;;;;;;9.24;44.57;98381.84;5087289;28;20196;-74
2023/01/18 11:13:29;;;;;;;5.82;3.47;;;;;;;8.92;45.00;98387.69;5087402;28;20232;-74
2023/01/18 11:16:21;;;;;;;5.07;2.65;;;;;;;9.35;44.26;98390.00;5090663;28;20247;-75
2023/01/18 11:19:01;;;;;;;4.78;3.08;;;;;;;9.92;43.18;98382.28;5074063;28;20200;-74
2023/01/18 11:21:44;;;;;;;5.80;3.13;;;;;;;10.96;41.42;98385.06;5086620;28;20240;-74
2023/01/18 11:24:15;;;;;;;3.70;2.97;;;;;;;11.34;39.75;98382.97;5095300;28;20283;-74
2023/01/18 11:26:58;;;;;;;3.60;2.03;;;;;;;11.29;38.86;98388.75;5096328;28;20208;-73
2023/01/18 11:29:28;;;;;;;5.55;2.80;;;;;;;11.01;38.81;98393.66;5076584;28;20234;-73
2023/01/18 11:32:00;;;;;;;4.05;2.45;;;;;;;10.83;38.59;98390.56;5089247;28;20196;-74
2023/01/18 11:34:31;;;;;;;2.92;2.40;;;;;;;10.71;39.39;98388.81;5087724;28;20233;-74
2023/01/18 11:37:00;;;;;;;4.68;2.05;;;;;;;11.15;38.22;98387.16;5089588;28;20214;-79
2023/01/18 11:39:29;;;;;;;4.97;2.42;;;;;;;10.82;38.76;98396.06;5089354;28;20211;-75
2023/01/18 11:42:24;;;;;;;2.80;1.90;;;;;;;10.83;39.04;98389.69;5087770;28;20268;-75
2023/01/18 11:45:01;;;;;;;3.65;2.00;;;;;;;11.00;38.96;98394.59;5075189;28;20214;-76
2023/01/18 11:47:34;;;;;;;3.30;2.10;;;;;;;11.61;38.57;98393.38;5090472;28;20235;-74
2023/01/18 11:50:06;;;;;;;4.93;2.40;;;;;;;11.99;38.32;98397.50;5089715;28;20185;-76
2023/01/18 11:52:45;;;;;;;5.15;2.47;;;;;;;12.17;37.84;98403.19;5088520;28;20295;-74
2023/01/18 11:55:23;;;;;;;2.47;1.95;;;;;;;11.84;37.33;98400.41;5086464;28;20299;-73
2023/01/18 11:57:51;;;;;;;4.05;1.95;;;;;;;11.44;37.24;98406.38;5087064;28;20185;-74
2023/01/18 12:00:26;;;;;;;3.17;2.20;;;;;;;11.26;38.10;98399.75;5090934;28;20260;-74
2023/01/18 12:03:11;;;;;;;4.55;2.00;;;;;;;11.82;37.62;98404.22;5088272;28;20212;-74
2023/01/18 12:05:49;;;;;;;3.85;2.28;;;;;;;11.11;38.58;98404.53;5087733;28;20631;-75
2023/01/18 12:08:40;;;;;;;6.97;2.58;;;;;;;11.03;40.02;98401.59;5089369;28;20207;-75
2023/01/18 12:11:20;;;;;;;4.13;2.67;;;;;;;11.91;37.98;98418.84;5088731;28;20204;-74
2023/01/18 12:13:58;;;;;;;4.90;3.88;;;;;;;12.07;38.72;98416.56;5084937;28;20231;-75
2023/01/18 12:16:40;;;;;;;7.13;4.60;;;;;;;12.28;39.77;98420.19;5086426;28;20211;-76
2023/01/18 12:19:30;;;;;;;5.30;4.80;;;;;;;11.83;40.49;98419.44;5089284;28;20184;-74